Mandarin Grace — 9V8352 — position and weather

sailwx.info

Track history (hours):
 
Tides and Currents Weather Stations Pressure Air Temp Water Temp Dewpoint Dewpoint Depression Visibility Wind Speed Wind Dir Waves Ship Positions

Mandarin Grace

Last reported at 2016-Sep-12 12:11 UTC. Time now 2016-Sep-26 17:24 UTC.
Position N 02°01' E 102°10'.
Warning: this ship's position is 14 days out of date.

Length 190 m; draft 11 m.

Type: Cargo ship. MMSI: 563862000.

Date/timePositionNaut miles runAvg speedWind from/ knotsBaromVisibWave heightAir tempDewpointWater temp
2016-Sep-12 12:11N 02°01' E 102°10'1113.4
2016-Sep-12 11:23N 01°55' E 102°20'1213.2
2016-Sep-12 10:30N 01°50' E 102°30'8912.7
2016-Sep-12 03:33N 01°11' E 103°50'8 1.6
2016-Sep-11 22:19N 01°17' E 103°56'0 0.0
2016-Sep-11 20:31N 01°17' E 103°56'0 0.1
2016-Sep-11 19:31N 01°17' E 103°56'0 0.0
2016-Sep-11 18:22N 01°17' E 103°56'0 0.0
2016-Sep-11 15:31N 01°17' E 103°56'1 1.0
2016-Sep-11 14:31N 01°17' E 103°57'5 4.9
2016-Sep-11 13:33N 01°16' E 104°02'  
2016-Sep-04 17:16N 30°24' E 123°03'10913.4
2016-Sep-04 09:07N 32°13' E 123°01'8512.6
2016-Sep-04 02:23N 33°38' E 122°57'18813.3
2016-Sep-03 12:13N 36°46' E 122°49'811.8
2016-Sep-03 11:32N 36°54' E 122°48'1111.5
2016-Sep-03 10:33N 37°05' E 122°48'1111.5
2016-Sep-03 09:33N 37°17' E 122°47'1211.9
2016-Sep-03 08:32N 37°29' E 122°45'1913.2
2016-Sep-03 07:07N 37°46' E 122°38'914.0
2016-Sep-03 06:30N 37°53' E 122°31'1513.7
2016-Sep-03 05:26N 37°60' E 122°14'5213.4
2016-Sep-03 01:33N 38°23' E 121°15'1414.0
2016-Sep-03 00:33N 38°30' E 120°60'1414.2
2016-Sep-02 23:33N 38°34' E 120°42'1414.3
2016-Sep-02 22:33N 38°36' E 120°24'1914.4
2016-Sep-02 21:16N 38°39' E 120°01'  
Track history (hours):
 
Tides and Currents Weather Stations Pressure Air Temp Water Temp Dewpoint Dewpoint Depression Visibility Wind Speed Wind Dir Waves Ship Positions

Mandarin Grace

Last reported at 2016-Sep-12 12:11 UTC. Time now 2016-Sep-26 17:24 UTC.
Position N 02°01' E 102°10'.
Warning: this ship's position is 14 days out of date.

Length 190 m; draft 11 m.

Type: Cargo ship. MMSI: 563862000.

Date/timePositionNaut miles runAvg speedWind from/ knotsBaromVisibWave heightAir tempDewpointWater temp
2016-Sep-12 12:11N 02°01' E 102°10'1113.4
2016-Sep-12 11:23N 01°55' E 102°20'1213.2
2016-Sep-12 10:30N 01°50' E 102°30'8912.7
2016-Sep-12 03:33N 01°11' E 103°50'8 1.6
2016-Sep-11 22:19N 01°17' E 103°56'0 0.0
2016-Sep-11 20:31N 01°17' E 103°56'0 0.1
2016-Sep-11 19:31N 01°17' E 103°56'0 0.0
2016-Sep-11 18:22N 01°17' E 103°56'0 0.0
2016-Sep-11 15:31N 01°17' E 103°56'1 1.0
2016-Sep-11 14:31N 01°17' E 103°57'5 4.9
2016-Sep-11 13:33N 01°16' E 104°02'  
2016-Sep-04 17:16N 30°24' E 123°03'10913.4
2016-Sep-04 09:07N 32°13' E 123°01'8512.6
2016-Sep-04 02:23N 33°38' E 122°57'18813.3
2016-Sep-03 12:13N 36°46' E 122°49'811.8
2016-Sep-03 11:32N 36°54' E 122°48'1111.5
2016-Sep-03 10:33N 37°05' E 122°48'1111.5
2016-Sep-03 09:33N 37°17' E 122°47'1211.9
2016-Sep-03 08:32N 37°29' E 122°45'1913.2
2016-Sep-03 07:07N 37°46' E 122°38'914.0
2016-Sep-03 06:30N 37°53' E 122°31'1513.7
2016-Sep-03 05:26N 37°60' E 122°14'5213.4
2016-Sep-03 01:33N 38°23' E 121°15'1414.0
2016-Sep-03 00:33N 38°30' E 120°60'1414.2
2016-Sep-02 23:33N 38°34' E 120°42'1414.3
2016-Sep-02 22:33N 38°36' E 120°24'1914.4
2016-Sep-02 21:16N 38°39' E 120°01'  

Dump ship's entire track history